createdAt,value
2022-12-01T12:42:43.790Z,7.30
2022-12-01T12:45:52.116Z,7.40
2022-12-01T12:48:45.685Z,7.80
2022-12-01T12:51:42.532Z,8.30
2022-12-01T12:54:20.032Z,8.80
2022-12-01T12:56:59.014Z,9.20
2022-12-01T12:59:39.404Z,9.60
2022-12-01T13:02:33.109Z,10.00
2022-12-01T13:05:12.678Z,10.30
2022-12-01T13:07:59.450Z,10.60
2022-12-01T13:10:46.132Z,10.90
2022-12-01T13:13:37.477Z,11.00
2022-12-01T13:16:12.360Z,11.10
2022-12-01T13:18:57.463Z,11.10
2022-12-01T13:21:26.699Z,11.10
2022-12-01T13:23:56.214Z,11.10
2022-12-01T13:26:23.662Z,11.00
2022-12-01T13:29:01.655Z,11.00
2022-12-01T13:31:46.628Z,11.00
2022-12-01T13:34:47.771Z,10.90
2022-12-01T13:37:37.740Z,10.80
2022-12-01T13:40:20.225Z,10.70
2022-12-01T13:43:20.142Z,10.60
2022-12-01T13:45:48.997Z,10.50
2022-12-01T13:48:51.592Z,10.40
2022-12-01T13:51:21.044Z,10.40
2022-12-01T13:54:28.528Z,10.30
2022-12-01T13:57:28.297Z,10.20
2022-12-01T14:00:22.101Z,10.10
2022-12-01T14:03:14.938Z,10.00
2022-12-01T14:05:57.122Z,9.90
2022-12-01T14:08:30.834Z,9.80
2022-12-01T14:11:20.761Z,9.80
2022-12-01T14:13:56.550Z,9.70
2022-12-01T14:16:50.078Z,9.70
2022-12-01T14:19:51.934Z,9.60
2022-12-01T14:22:35.714Z,9.60
2022-12-01T14:25:20.956Z,9.50
2022-12-01T14:27:57.644Z,9.50
2022-12-01T14:30:41.240Z,9.50
2022-12-01T14:33:39.128Z,9.40
2022-12-01T14:36:42.992Z,9.40
2022-12-01T14:39:28.647Z,9.30
2022-12-01T14:43:10.485Z,9.30
